sensor_id;sensor_type;location;lat;lon;timestamp;P1;durP1;ratioP1;P2;durP2;ratioP2
45762;SDS011;37512;52.408;13.356;2022-07-29T00:00:35;5.38;;;1.70;;
45762;SDS011;37512;52.408;13.356;2022-07-29T00:04:36;5.85;;;2.00;;
45762;SDS011;37512;52.408;13.356;2022-07-29T00:08:38;5.18;;;2.20;;
45762;SDS011;37512;52.408;13.356;2022-07-29T00:12:39;4.45;;;1.98;;
45762;SDS011;37512;52.408;13.356;2022-07-29T00:16:41;7.22;;;2.08;;
45762;SDS011;37512;52.408;13.356;2022-07-29T00:20:43;10.38;;;2.00;;
45762;SDS011;37512;52.408;13.356;2022-07-29T00:24:44;4.90;;;2.17;;
45762;SDS011;37512;52.408;13.356;2022-07-29T00:28:46;7.40;;;2.30;;
45762;SDS011;37512;52.408;13.356;2022-07-29T00:32:47;5.57;;;2.50;;
45762;SDS011;37512;52.408;13.356;2022-07-29T00:36:49;7.57;;;2.28;;
45762;SDS011;37512;52.408;13.356;2022-07-29T00:40:50;6.35;;;2.25;;
45762;SDS011;37512;52.408;13.356;2022-07-29T00:44:52;3.83;;;2.22;;
45762;SDS011;37512;52.408;13.356;2022-07-29T00:48:53;9.10;;;2.60;;
45762;SDS011;37512;52.408;13.356;2022-07-29T00:52:54;4.47;;;2.17;;
45762;SDS011;37512;52.408;13.356;2022-07-29T00:56:57;6.05;;;2.53;;
45762;SDS011;37512;52.408;13.356;2022-07-29T01:00:59;5.95;;;2.58;;
45762;SDS011;37512;52.408;13.356;2022-07-29T01:05:02;6.97;;;2.67;;
45762;SDS011;37512;52.408;13.356;2022-07-29T01:09:04;7.30;;;2.90;;
45762;SDS011;37512;52.408;13.356;2022-07-29T01:13:07;7.03;;;2.55;;
45762;SDS011;37512;52.408;13.356;2022-07-29T01:17:17;5.85;;;2.55;;
45762;SDS011;37512;52.408;13.356;2022-07-29T01:30:11;7.43;;;2.88;;
45762;SDS011;37512;52.408;13.356;2022-07-29T01:34:18;6.68;;;2.50;;
45762;SDS011;37512;52.408;13.356;2022-07-29T01:38:24;5.40;;;2.42;;
45762;SDS011;37512;52.408;13.356;2022-07-29T01:42:34;4.22;;;2.40;;
45762;SDS011;37512;52.408;13.356;2022-07-29T01:46:40;11.85;;;3.03;;
45762;SDS011;37512;52.408;13.356;2022-07-29T01:50:46;7.20;;;2.42;;
45762;SDS011;37512;52.408;13.356;2022-07-29T01:54:55;4.57;;;3.22;;
45762;SDS011;37512;52.408;13.356;2022-07-29T01:58:58;6.22;;;3.10;;
45762;SDS011;37512;52.408;13.356;2022-07-29T02:03:04;6.63;;;3.10;;
45762;SDS011;37512;52.408;13.356;2022-07-29T02:07:10;6.05;;;3.00;;
45762;SDS011;37512;52.408;13.356;2022-07-29T02:11:15;5.00;;;2.80;;
45762;SDS011;37512;52.408;13.356;2022-07-29T02:15:17;3.72;;;2.72;;
45762;SDS011;37512;52.408;13.356;2022-07-29T02:19:21;4.45;;;2.67;;
45762;SDS011;37512;52.408;13.356;2022-07-29T02:23:24;3.97;;;2.67;;
45762;SDS011;37512;52.408;13.356;2022-07-29T02:27:27;8.35;;;3.22;;
45762;SDS011;37512;52.408;13.356;2022-07-29T02:31:32;4.78;;;2.78;;
45762;SDS011;37512;52.408;13.356;2022-07-29T02:35:35;5.68;;;2.97;;
45762;SDS011;37512;52.408;13.356;2022-07-29T02:39:39;6.57;;;2.80;;
45762;SDS011;37512;52.408;13.356;2022-07-29T02:43:43;8.98;;;3.40;;
45762;SDS011;37512;52.408;13.356;2022-07-29T02:47:48;6.20;;;2.97;;
45762;SDS011;37512;52.408;13.356;2022-07-29T02:51:56;8.85;;;3.17;;
45762;SDS011;37512;52.408;13.356;2022-07-29T02:56:10;3.78;;;2.80;;
45762;SDS011;37512;52.408;13.356;2022-07-29T03:00:15;6.95;;;3.10;;
45762;SDS011;37512;52.408;13.356;2022-07-29T03:04:18;4.50;;;3.30;;
45762;SDS011;37512;52.408;13.356;2022-07-29T03:08:22;3.75;;;2.85;;
45762;SDS011;37512;52.408;13.356;2022-07-29T03:12:24;7.47;;;3.15;;
45762;SDS011;37512;52.408;13.356;2022-07-29T03:16:27;5.88;;;3.30;;
45762;SDS011;37512;52.408;13.356;2022-07-29T03:20:29;7.22;;;2.83;;
45762;SDS011;37512;52.408;13.356;2022-07-29T03:24:32;8.68;;;4.03;;
45762;SDS011;37512;52.408;13.356;2022-07-29T03:28:35;6.63;;;3.13;;
45762;SDS011;37512;52.408;13.356;2022-07-29T03:32:40;12.73;;;3.58;;
45762;SDS011;37512;52.408;13.356;2022-07-29T03:36:45;6.80;;;3.03;;
45762;SDS011;37512;52.408;13.356;2022-07-29T03:40:48;4.43;;;3.05;;
45762;SDS011;37512;52.408;13.356;2022-07-29T03:44:52;6.80;;;3.15;;
45762;SDS011;37512;52.408;13.356;2022-07-29T03:48:56;9.10;;;3.05;;
45762;SDS011;37512;52.408;13.356;2022-07-29T03:53:04;4.55;;;2.83;;
45762;SDS011;37512;52.408;13.356;2022-07-29T03:57:05;5.43;;;2.67;;
45762;SDS011;37512;52.408;13.356;2022-07-29T04:01:08;6.93;;;3.25;;
45762;SDS011;37512;52.408;13.356;2022-07-29T04:05:14;5.88;;;3.45;;
45762;SDS011;37512;52.408;13.356;2022-07-29T04:09:16;5.32;;;2.85;;
45762;SDS011;37512;52.408;13.356;2022-07-29T04:13:18;6.22;;;3.22;;
45762;SDS011;37512;52.408;13.356;2022-07-29T04:17:20;5.18;;;2.70;;
45762;SDS011;37512;52.408;13.356;2022-07-29T04:21:22;4.25;;;3.03;;
45762;SDS011;37512;52.408;13.356;2022-07-29T04:25:23;8.90;;;3.30;;
45762;SDS011;37512;52.408;13.356;2022-07-29T04:29:25;8.18;;;3.42;;
45762;SDS011;37512;52.408;13.356;2022-07-29T04:33:26;6.22;;;3.15;;
45762;SDS011;37512;52.408;13.356;2022-07-29T04:37:28;8.55;;;3.50;;
45762;SDS011;37512;52.408;13.356;2022-07-29T04:41:29;5.38;;;3.10;;
45762;SDS011;37512;52.408;13.356;2022-07-29T04:45:33;4.47;;;2.55;;
45762;SDS011;37512;52.408;13.356;2022-07-29T04:49:37;4.75;;;3.20;;
45762;SDS011;37512;52.408;13.356;2022-07-29T04:53:39;7.68;;;2.85;;
45762;SDS011;37512;52.408;13.356;2022-07-29T04:57:40;4.97;;;2.72;;
45762;SDS011;37512;52.408;13.356;2022-07-29T05:01:42;7.00;;;2.72;;
45762;SDS011;37512;52.408;13.356;2022-07-29T05:05:44;4.53;;;2.70;;
45762;SDS011;37512;52.408;13.356;2022-07-29T05:09:45;9.68;;;3.10;;
45762;SDS011;37512;52.408;13.356;2022-07-29T05:13:46;6.47;;;2.88;;
45762;SDS011;37512;52.408;13.356;2022-07-29T05:17:48;6.75;;;3.17;;
45762;SDS011;37512;52.408;13.356;2022-07-29T05:21:49;6.68;;;3.25;;
45762;SDS011;37512;52.408;13.356;2022-07-29T05:25:51;8.50;;;2.80;;
45762;SDS011;37512;52.408;13.356;2022-07-29T05:29:53;10.07;;;3.20;;
45762;SDS011;37512;52.408;13.356;2022-07-29T05:33:54;5.63;;;2.63;;
45762;SDS011;37512;52.408;13.356;2022-07-29T05:37:56;4.93;;;2.92;;
45762;SDS011;37512;52.408;13.356;2022-07-29T05:41:57;9.90;;;3.78;;
45762;SDS011;37512;52.408;13.356;2022-07-29T05:45:59;6.43;;;3.45;;
45762;SDS011;37512;52.408;13.356;2022-07-29T05:50:01;5.55;;;3.00;;
45762;SDS011;37512;52.408;13.356;2022-07-29T05:54:03;7.50;;;2.65;;
45762;SDS011;37512;52.408;13.356;2022-07-29T05:58:04;10.82;;;3.33;;
45762;SDS011;37512;52.408;13.356;2022-07-29T06:02:06;6.13;;;2.92;;
45762;SDS011;37512;52.408;13.356;2022-07-29T06:06:07;5.47;;;2.72;;
45762;SDS011;37512;52.408;13.356;2022-07-29T06:10:09;5.40;;;3.05;;
45762;SDS011;37512;52.408;13.356;2022-07-29T06:14:11;8.98;;;3.15;;
45762;SDS011;37512;52.408;13.356;2022-07-29T06:18:13;9.18;;;3.53;;
45762;SDS011;37512;52.408;13.356;2022-07-29T06:22:15;4.43;;;2.42;;
45762;SDS011;37512;52.408;13.356;2022-07-29T06:26:18;5.10;;;2.60;;
45762;SDS011;37512;52.408;13.356;2022-07-29T06:30:31;7.25;;;2.80;;
45762;SDS011;37512;52.408;13.356;2022-07-29T06:34:32;6.70;;;2.90;;
45762;SDS011;37512;52.408;13.356;2022-07-29T06:38:34;3.95;;;2.25;;
45762;SDS011;37512;52.408;13.356;2022-07-29T06:42:43;8.13;;;3.08;;
45762;SDS011;37512;52.408;13.356;2022-07-29T06:46:45;7.53;;;2.47;;
45762;SDS011;37512;52.408;13.356;2022-07-29T06:50:50;5.78;;;2.47;;
45762;SDS011;37512;52.408;13.356;2022-07-29T06:54:51;9.05;;;2.70;;
45762;SDS011;37512;52.408;13.356;2022-07-29T06:58:53;7.22;;;2.38;;
45762;SDS011;37512;52.408;13.356;2022-07-29T07:02:54;5.57;;;2.28;;
45762;SDS011;37512;52.408;13.356;2022-07-29T07:06:55;5.00;;;2.60;;
45762;SDS011;37512;52.408;13.356;2022-07-29T07:10:57;4.75;;;2.35;;
45762;SDS011;37512;52.408;13.356;2022-07-29T07:14:59;6.07;;;2.03;;
45762;SDS011;37512;52.408;13.356;2022-07-29T07:19:00;5.60;;;2.38;;
45762;SDS011;37512;52.408;13.356;2022-07-29T07:23:02;5.65;;;2.63;;
45762;SDS011;37512;52.408;13.356;2022-07-29T07:27:04;6.82;;;2.15;;
45762;SDS011;37512;52.408;13.356;2022-07-29T07:31:05;3.30;;;2.30;;
45762;SDS011;37512;52.408;13.356;2022-07-29T07:35:08;4.63;;;2.30;;
45762;SDS011;37512;52.408;13.356;2022-07-29T07:39:10;4.80;;;2.47;;
45762;SDS011;37512;52.408;13.356;2022-07-29T07:43:12;9.02;;;2.65;;
45762;SDS011;37512;52.408;13.356;2022-07-29T07:47:14;6.10;;;2.28;;
45762;SDS011;37512;52.408;13.356;2022-07-29T07:51:22;7.93;;;1.95;;
45762;SDS011;37512;52.408;13.356;2022-07-29T07:55:23;7.85;;;2.00;;
45762;SDS011;37512;52.408;13.356;2022-07-29T07:59:26;3.78;;;1.90;;
45762;SDS011;37512;52.408;13.356;2022-07-29T08:03:27;3.00;;;1.60;;
45762;SDS011;37512;52.408;13.356;2022-07-29T08:07:28;4.10;;;1.75;;
45762;SDS011;37512;52.408;13.356;2022-07-29T08:11:30;4.78;;;3.10;;
45762;SDS011;37512;52.408;13.356;2022-07-29T08:15:38;3.47;;;1.83;;
45762;SDS011;37512;52.408;13.356;2022-07-29T08:19:43;5.65;;;2.30;;
45762;SDS011;37512;52.408;13.356;2022-07-29T08:23:45;5.15;;;2.05;;
45762;SDS011;37512;52.408;13.356;2022-07-29T08:27:59;2.95;;;1.50;;
45762;SDS011;37512;52.408;13.356;2022-07-29T08:32:00;4.65;;;2.03;;
45762;SDS011;37512;52.408;13.356;2022-07-29T08:36:03;7.95;;;2.30;;
45762;SDS011;37512;52.408;13.356;2022-07-29T08:40:06;2.45;;;1.90;;
45762;SDS011;37512;52.408;13.356;2022-07-29T08:44:08;2.45;;;1.65;;
45762;SDS011;37512;52.408;13.356;2022-07-29T08:48:13;3.10;;;1.80;;
45762;SDS011;37512;52.408;13.356;2022-07-29T08:52:16;3.58;;;1.70;;
45762;SDS011;37512;52.408;13.356;2022-07-29T08:56:18;4.70;;;1.95;;
45762;SDS011;37512;52.408;13.356;2022-07-29T09:00:21;4.53;;;2.42;;
45762;SDS011;37512;52.408;13.356;2022-07-29T09:04:24;6.68;;;1.92;;
45762;SDS011;37512;52.408;13.356;2022-07-29T09:08:27;2.90;;;1.42;;
45762;SDS011;37512;52.408;13.356;2022-07-29T09:12:29;3.42;;;1.60;;
45762;SDS011;37512;52.408;13.356;2022-07-29T09:16:50;3.13;;;1.45;;
45762;SDS011;37512;52.408;13.356;2022-07-29T09:20:54;3.38;;;1.60;;
45762;SDS011;37512;52.408;13.356;2022-07-29T09:25:32;8.63;;;1.70;;
45762;SDS011;37512;52.408;13.356;2022-07-29T09:29:37;3.25;;;1.50;;
45762;SDS011;37512;52.408;13.356;2022-07-29T09:33:39;2.92;;;1.98;;
45762;SDS011;37512;52.408;13.356;2022-07-29T09:37:43;7.15;;;1.63;;
45762;SDS011;37512;52.408;13.356;2022-07-29T09:45:50;3.85;;;1.65;;
45762;SDS011;37512;52.408;13.356;2022-07-29T09:49:58;3.25;;;1.38;;
45762;SDS011;37512;52.408;13.356;2022-07-29T09:54:01;6.38;;;1.77;;
45762;SDS011;37512;52.408;13.356;2022-07-29T09:58:26;4.03;;;1.52;;
45762;SDS011;37512;52.408;13.356;2022-07-29T10:02:30;2.80;;;1.60;;
45762;SDS011;37512;52.408;13.356;2022-07-29T10:06:33;5.15;;;1.35;;
45762;SDS011;37512;52.408;13.356;2022-07-29T10:10:38;4.82;;;1.73;;
45762;SDS011;37512;52.408;13.356;2022-07-29T10:14:42;3.15;;;1.48;;
45762;SDS011;37512;52.408;13.356;2022-07-29T10:18:44;5.63;;;2.17;;
45762;SDS011;37512;52.408;13.356;2022-07-29T10:22:48;5.68;;;1.75;;
45762;SDS011;37512;52.408;13.356;2022-07-29T10:26:54;3.67;;;1.70;;
45762;SDS011;37512;52.408;13.356;2022-07-29T10:31:01;13.90;;;2.00;;
45762;SDS011;37512;52.408;13.356;2022-07-29T10:39:32;3.92;;;1.50;;
45762;SDS011;37512;52.408;13.356;2022-07-29T10:48:19;3.65;;;1.73;;
45762;SDS011;37512;52.408;13.356;2022-07-29T10:52:23;2.45;;;1.60;;
45762;SDS011;37512;52.408;13.356;2022-07-29T10:56:31;2.65;;;1.40;;
45762;SDS011;37512;52.408;13.356;2022-07-29T11:00:38;10.40;;;1.90;;
45762;SDS011;37512;52.408;13.356;2022-07-29T11:08:44;3.05;;;1.88;;
45762;SDS011;37512;52.408;13.356;2022-07-29T11:12:47;3.75;;;1.77;;
45762;SDS011;37512;52.408;13.356;2022-07-29T11:16:59;1.65;;;1.35;;
45762;SDS011;37512;52.408;13.356;2022-07-29T11:21:06;3.28;;;1.92;;
45762;SDS011;37512;52.408;13.356;2022-07-29T11:30:45;4.32;;;1.88;;
45762;SDS011;37512;52.408;13.356;2022-07-29T11:40:07;7.88;;;2.03;;
45762;SDS011;37512;52.408;13.356;2022-07-29T11:44:11;4.35;;;2.03;;
45762;SDS011;37512;52.408;13.356;2022-07-29T11:48:18;6.22;;;2.17;;
45762;SDS011;37512;52.408;13.356;2022-07-29T11:52:45;5.65;;;2.63;;
45762;SDS011;37512;52.408;13.356;2022-07-29T11:56:50;5.18;;;1.85;;
45762;SDS011;37512;52.408;13.356;2022-07-29T12:00:53;5.50;;;2.25;;
45762;SDS011;37512;52.408;13.356;2022-07-29T12:04:56;5.80;;;2.00;;
45762;SDS011;37512;52.408;13.356;2022-07-29T12:09:00;4.18;;;1.83;;
45762;SDS011;37512;52.408;13.356;2022-07-29T12:13:02;14.45;;;2.63;;
45762;SDS011;37512;52.408;13.356;2022-07-29T12:17:04;3.67;;;2.38;;
45762;SDS011;37512;52.408;13.356;2022-07-29T12:21:06;3.80;;;2.15;;
45762;SDS011;37512;52.408;13.356;2022-07-29T12:25:13;8.63;;;2.60;;
45762;SDS011;37512;52.408;13.356;2022-07-29T12:29:33;3.20;;;1.90;;
45762;SDS011;37512;52.408;13.356;2022-07-29T12:33:36;5.65;;;2.00;;
45762;SDS011;37512;52.408;13.356;2022-07-29T12:37:38;4.68;;;1.92;;
45762;SDS011;37512;52.408;13.356;2022-07-29T12:41:43;8.75;;;1.83;;
45762;SDS011;37512;52.408;13.356;2022-07-29T12:45:46;4.65;;;2.40;;
45762;SDS011;37512;52.408;13.356;2022-07-29T12:49:51;2.72;;;2.20;;
45762;SDS011;37512;52.408;13.356;2022-07-29T12:54:13;6.28;;;2.42;;
45762;SDS011;37512;52.408;13.356;2022-07-29T12:58:29;6.65;;;2.17;;
45762;SDS011;37512;52.408;13.356;2022-07-29T13:02:32;7.97;;;2.15;;
45762;SDS011;37512;52.408;13.356;2022-07-29T13:06:38;5.93;;;2.38;;
45762;SDS011;37512;52.408;13.356;2022-07-29T13:10:41;4.80;;;2.17;;
45762;SDS011;37512;52.408;13.356;2022-07-29T13:14:45;2.78;;;1.95;;
45762;SDS011;37512;52.408;13.356;2022-07-29T13:18:47;4.32;;;2.30;;
45762;SDS011;37512;52.408;13.356;2022-07-29T13:22:49;5.35;;;2.60;;
45762;SDS011;37512;52.408;13.356;2022-07-29T13:26:51;5.38;;;2.08;;
45762;SDS011;37512;52.408;13.356;2022-07-29T13:30:52;4.25;;;2.40;;
45762;SDS011;37512;52.408;13.356;2022-07-29T13:34:58;3.58;;;2.20;;
45762;SDS011;37512;52.408;13.356;2022-07-29T13:39:05;9.32;;;2.17;;
45762;SDS011;37512;52.408;13.356;2022-07-29T13:43:09;5.47;;;2.10;;
45762;SDS011;37512;52.408;13.356;2022-07-29T13:47:11;2.38;;;1.98;;
45762;SDS011;37512;52.408;13.356;2022-07-29T13:51:12;4.00;;;2.00;;
45762;SDS011;37512;52.408;13.356;2022-07-29T13:55:14;4.55;;;2.05;;
45762;SDS011;37512;52.408;13.356;2022-07-29T13:59:15;4.97;;;1.65;;
45762;SDS011;37512;52.408;13.356;2022-07-29T14:03:17;4.60;;;1.80;;
45762;SDS011;37512;52.408;13.356;2022-07-29T14:07:19;3.45;;;1.77;;
45762;SDS011;37512;52.408;13.356;2022-07-29T14:11:21;4.03;;;1.70;;
45762;SDS011;37512;52.408;13.356;2022-07-29T14:15:23;2.33;;;1.83;;
45762;SDS011;37512;52.408;13.356;2022-07-29T14:19:24;2.42;;;1.70;;
45762;SDS011;37512;52.408;13.356;2022-07-29T14:23:26;4.68;;;1.98;;
45762;SDS011;37512;52.408;13.356;2022-07-29T14:27:27;5.10;;;2.22;;
45762;SDS011;37512;52.408;13.356;2022-07-29T14:31:38;6.50;;;2.33;;
45762;SDS011;37512;52.408;13.356;2022-07-29T14:35:39;3.88;;;1.80;;
45762;SDS011;37512;52.408;13.356;2022-07-29T14:39:41;7.90;;;2.10;;
45762;SDS011;37512;52.408;13.356;2022-07-29T14:43:43;6.05;;;1.90;;
45762;SDS011;37512;52.408;13.356;2022-07-29T14:47:45;2.70;;;1.83;;
45762;SDS011;37512;52.408;13.356;2022-07-29T14:51:46;3.90;;;1.90;;
45762;SDS011;37512;52.408;13.356;2022-07-29T14:55:48;4.88;;;2.00;;
45762;SDS011;37512;52.408;13.356;2022-07-29T14:59:50;3.97;;;1.88;;
45762;SDS011;37512;52.408;13.356;2022-07-29T15:03:52;6.32;;;1.90;;
45762;SDS011;37512;52.408;13.356;2022-07-29T15:07:59;6.22;;;2.00;;
45762;SDS011;37512;52.408;13.356;2022-07-29T15:12:01;3.45;;;1.90;;
45762;SDS011;37512;52.408;13.356;2022-07-29T15:16:04;4.65;;;1.85;;
45762;SDS011;37512;52.408;13.356;2022-07-29T15:20:06;2.03;;;1.83;;
45762;SDS011;37512;52.408;13.356;2022-07-29T15:24:08;4.75;;;2.17;;
45762;SDS011;37512;52.408;13.356;2022-07-29T15:28:10;3.75;;;2.40;;
45762;SDS011;37512;52.408;13.356;2022-07-29T15:32:11;5.40;;;2.10;;
45762;SDS011;37512;52.408;13.356;2022-07-29T15:36:13;2.80;;;1.77;;
45762;SDS011;37512;52.408;13.356;2022-07-29T15:40:36;4.80;;;2.20;;
45762;SDS011;37512;52.408;13.356;2022-07-29T15:44:39;3.28;;;2.05;;
45762;SDS011;37512;52.408;13.356;2022-07-29T15:48:40;3.40;;;2.17;;
45762;SDS011;37512;52.408;13.356;2022-07-29T15:52:42;3.90;;;2.55;;
45762;SDS011;37512;52.408;13.356;2022-07-29T15:56:43;5.47;;;1.98;;
45762;SDS011;37512;52.408;13.356;2022-07-29T16:00:45;2.63;;;1.88;;
45762;SDS011;37512;52.408;13.356;2022-07-29T16:04:46;5.93;;;2.05;;
45762;SDS011;37512;52.408;13.356;2022-07-29T16:08:48;2.78;;;2.00;;
45762;SDS011;37512;52.408;13.356;2022-07-29T16:12:49;3.72;;;1.90;;
45762;SDS011;37512;52.408;13.356;2022-07-29T16:16:51;4.63;;;2.30;;
45762;SDS011;37512;52.408;13.356;2022-07-29T16:20:52;2.97;;;1.83;;
45762;SDS011;37512;52.408;13.356;2022-07-29T16:24:54;3.88;;;2.05;;
45762;SDS011;37512;52.408;13.356;2022-07-29T16:28:56;4.68;;;1.95;;
45762;SDS011;37512;52.408;13.356;2022-07-29T16:32:57;4.38;;;2.15;;
45762;SDS011;37512;52.408;13.356;2022-07-29T16:36:59;2.70;;;1.60;;
45762;SDS011;37512;52.408;13.356;2022-07-29T16:41:01;5.53;;;2.13;;
45762;SDS011;37512;52.408;13.356;2022-07-29T16:45:03;4.13;;;2.10;;
45762;SDS011;37512;52.408;13.356;2022-07-29T16:49:05;8.40;;;2.00;;
45762;SDS011;37512;52.408;13.356;2022-07-29T16:53:06;4.00;;;2.20;;
45762;SDS011;37512;52.408;13.356;2022-07-29T16:57:08;4.05;;;1.88;;
45762;SDS011;37512;52.408;13.356;2022-07-29T17:01:10;4.15;;;2.25;;
45762;SDS011;37512;52.408;13.356;2022-07-29T17:05:12;3.78;;;2.00;;
45762;SDS011;37512;52.408;13.356;2022-07-29T17:09:13;5.28;;;2.42;;
45762;SDS011;37512;52.408;13.356;2022-07-29T17:13:15;8.98;;;2.38;;
45762;SDS011;37512;52.408;13.356;2022-07-29T17:17:16;4.85;;;2.10;;
45762;SDS011;37512;52.408;13.356;2022-07-29T17:21:38;4.70;;;2.20;;
45762;SDS011;37512;52.408;13.356;2022-07-29T17:25:49;4.78;;;2.65;;
45762;SDS011;37512;52.408;13.356;2022-07-29T17:29:50;3.67;;;1.90;;
45762;SDS011;37512;52.408;13.356;2022-07-29T17:33:52;3.85;;;2.10;;
45762;SDS011;37512;52.408;13.356;2022-07-29T17:37:59;4.87;;;1.97;;
45762;SDS011;37512;52.408;13.356;2022-07-29T17:42:02;4.60;;;2.17;;
45762;SDS011;37512;52.408;13.356;2022-07-29T17:46:04;3.35;;;2.30;;
45762;SDS011;37512;52.408;13.356;2022-07-29T17:50:08;4.72;;;2.40;;
45762;SDS011;37512;52.408;13.356;2022-07-29T17:54:09;3.85;;;2.08;;
45762;SDS011;37512;52.408;13.356;2022-07-29T17:58:11;3.90;;;1.90;;
45762;SDS011;37512;52.408;13.356;2022-07-29T18:02:13;6.45;;;2.15;;
45762;SDS011;37512;52.408;13.356;2022-07-29T18:06:14;4.30;;;2.20;;
45762;SDS011;37512;52.408;13.356;2022-07-29T18:10:16;6.70;;;2.20;;
45762;SDS011;37512;52.408;13.356;2022-07-29T18:14:17;2.80;;;2.05;;
45762;SDS011;37512;52.408;13.356;2022-07-29T18:18:19;4.15;;;2.05;;
45762;SDS011;37512;52.408;13.356;2022-07-29T18:22:20;4.47;;;3.00;;
45762;SDS011;37512;52.408;13.356;2022-07-29T18:26:22;4.35;;;1.88;;
45762;SDS011;37512;52.408;13.356;2022-07-29T18:30:30;8.55;;;3.60;;
45762;SDS011;37512;52.408;13.356;2022-07-29T18:34:36;5.55;;;3.10;;
45762;SDS011;37512;52.408;13.356;2022-07-29T18:38:39;3.15;;;1.95;;
45762;SDS011;37512;52.408;13.356;2022-07-29T18:42:41;3.33;;;2.10;;
45762;SDS011;37512;52.408;13.356;2022-07-29T18:46:42;8.05;;;2.72;;
45762;SDS011;37512;52.408;13.356;2022-07-29T18:50:47;5.63;;;2.30;;
45762;SDS011;37512;52.408;13.356;2022-07-29T18:54:50;5.30;;;2.05;;
45762;SDS011;37512;52.408;13.356;2022-07-29T18:58:52;4.63;;;2.70;;
45762;SDS011;37512;52.408;13.356;2022-07-29T19:02:54;15.15;;;3.67;;
45762;SDS011;37512;52.408;13.356;2022-07-29T19:06:57;9.27;;;2.17;;
45762;SDS011;37512;52.408;13.356;2022-07-29T19:11:07;3.42;;;2.17;;
45762;SDS011;37512;52.408;13.356;2022-07-29T19:15:09;6.75;;;1.95;;
45762;SDS011;37512;52.408;13.356;2022-07-29T19:19:11;4.97;;;1.88;;
45762;SDS011;37512;52.408;13.356;2022-07-29T19:23:12;4.18;;;2.25;;
45762;SDS011;37512;52.408;13.356;2022-07-29T19:27:14;3.05;;;1.83;;
45762;SDS011;37512;52.408;13.356;2022-07-29T19:31:17;3.70;;;2.00;;
45762;SDS011;37512;52.408;13.356;2022-07-29T19:35:19;6.90;;;2.28;;
45762;SDS011;37512;52.408;13.356;2022-07-29T19:39:31;4.40;;;1.80;;
45762;SDS011;37512;52.408;13.356;2022-07-29T19:43:35;4.38;;;2.00;;
45762;SDS011;37512;52.408;13.356;2022-07-29T19:47:53;4.93;;;2.30;;
45762;SDS011;37512;52.408;13.356;2022-07-29T19:52:01;4.38;;;2.30;;
45762;SDS011;37512;52.408;13.356;2022-07-29T19:56:03;5.47;;;2.88;;
45762;SDS011;37512;52.408;13.356;2022-07-29T20:00:05;6.40;;;1.92;;
45762;SDS011;37512;52.408;13.356;2022-07-29T20:04:11;7.53;;;1.88;;
45762;SDS011;37512;52.408;13.356;2022-07-29T20:08:12;3.08;;;1.92;;
45762;SDS011;37512;52.408;13.356;2022-07-29T20:12:14;5.22;;;2.05;;
45762;SDS011;37512;52.408;13.356;2022-07-29T20:16:16;4.95;;;2.45;;
45762;SDS011;37512;52.408;13.356;2022-07-29T20:20:17;3.88;;;1.85;;
45762;SDS011;37512;52.408;13.356;2022-07-29T20:24:19;5.65;;;2.10;;
45762;SDS011;37512;52.408;13.356;2022-07-29T20:28:21;3.00;;;1.85;;
45762;SDS011;37512;52.408;13.356;2022-07-29T20:32:22;5.07;;;2.10;;
45762;SDS011;37512;52.408;13.356;2022-07-29T20:36:24;3.70;;;2.05;;
45762;SDS011;37512;52.408;13.356;2022-07-29T20:40:26;6.60;;;2.28;;
45762;SDS011;37512;52.408;13.356;2022-07-29T20:44:29;4.22;;;2.05;;
45762;SDS011;37512;52.408;13.356;2022-07-29T20:48:30;5.43;;;2.25;;
45762;SDS011;37512;52.408;13.356;2022-07-29T20:52:32;3.80;;;1.73;;
45762;SDS011;37512;52.408;13.356;2022-07-29T20:56:33;3.53;;;1.83;;
45762;SDS011;37512;52.408;13.356;2022-07-29T21:00:35;6.13;;;1.98;;
45762;SDS011;37512;52.408;13.356;2022-07-29T21:04:37;5.55;;;1.98;;
45762;SDS011;37512;52.408;13.356;2022-07-29T21:08:39;4.72;;;2.05;;
45762;SDS011;37512;52.408;13.356;2022-07-29T21:12:40;4.78;;;1.77;;
45762;SDS011;37512;52.408;13.356;2022-07-29T21:16:42;7.72;;;2.40;;
45762;SDS011;37512;52.408;13.356;2022-07-29T21:20:44;3.70;;;2.22;;
45762;SDS011;37512;52.408;13.356;2022-07-29T21:24:45;6.75;;;1.92;;
45762;SDS011;37512;52.408;13.356;2022-07-29T21:28:46;7.30;;;2.00;;
45762;SDS011;37512;52.408;13.356;2022-07-29T21:32:50;3.38;;;2.35;;
45762;SDS011;37512;52.408;13.356;2022-07-29T21:36:52;6.07;;;1.95;;
45762;SDS011;37512;52.408;13.356;2022-07-29T21:40:54;5.50;;;1.95;;
45762;SDS011;37512;52.408;13.356;2022-07-29T21:44:56;3.85;;;1.80;;
45762;SDS011;37512;52.408;13.356;2022-07-29T21:48:58;4.10;;;1.92;;
45762;SDS011;37512;52.408;13.356;2022-07-29T21:52:59;5.05;;;2.15;;
45762;SDS011;37512;52.408;13.356;2022-07-29T21:57:01;9.93;;;2.65;;
45762;SDS011;37512;52.408;13.356;2022-07-29T22:01:03;9.13;;;2.67;;
45762;SDS011;37512;52.408;13.356;2022-07-29T22:05:05;5.78;;;2.33;;
45762;SDS011;37512;52.408;13.356;2022-07-29T22:09:07;3.65;;;2.45;;
45762;SDS011;37512;52.408;13.356;2022-07-29T22:13:08;5.32;;;2.45;;
45762;SDS011;37512;52.408;13.356;2022-07-29T22:17:10;4.60;;;2.33;;
45762;SDS011;37512;52.408;13.356;2022-07-29T22:21:12;8.00;;;4.20;;
45762;SDS011;37512;52.408;13.356;2022-07-29T22:25:14;7.35;;;2.38;;
45762;SDS011;37512;52.408;13.356;2022-07-29T22:29:15;8.85;;;2.13;;
45762;SDS011;37512;52.408;13.356;2022-07-29T22:33:17;4.35;;;1.85;;
45762;SDS011;37512;52.408;13.356;2022-07-29T22:37:19;2.85;;;1.80;;
45762;SDS011;37512;52.408;13.356;2022-07-29T22:41:20;2.90;;;1.90;;
45762;SDS011;37512;52.408;13.356;2022-07-29T22:45:22;3.72;;;1.98;;
45762;SDS011;37512;52.408;13.356;2022-07-29T22:49:23;7.95;;;1.92;;
45762;SDS011;37512;52.408;13.356;2022-07-29T22:53:25;2.85;;;1.98;;
45762;SDS011;37512;52.408;13.356;2022-07-29T22:57:27;2.50;;;1.83;;
45762;SDS011;37512;52.408;13.356;2022-07-29T23:01:29;3.05;;;1.92;;
45762;SDS011;37512;52.408;13.356;2022-07-29T23:05:38;2.55;;;1.67;;
45762;SDS011;37512;52.408;13.356;2022-07-29T23:09:39;3.67;;;2.00;;
45762;SDS011;37512;52.408;13.356;2022-07-29T23:13:41;2.95;;;1.75;;
45762;SDS011;37512;52.408;13.356;2022-07-29T23:17:42;4.10;;;2.40;;
45762;SDS011;37512;52.408;13.356;2022-07-29T23:21:44;3.47;;;2.10;;
45762;SDS011;37512;52.408;13.356;2022-07-29T23:25:45;2.75;;;1.90;;
45762;SDS011;37512;52.408;13.356;2022-07-29T23:29:47;4.70;;;1.75;;
45762;SDS011;37512;52.408;13.356;2022-07-29T23:33:48;5.38;;;2.00;;
45762;SDS011;37512;52.408;13.356;2022-07-29T23:37:50;2.63;;;1.73;;
45762;SDS011;37512;52.408;13.356;2022-07-29T23:41:51;13.40;;;2.38;;
45762;SDS011;37512;52.408;13.356;2022-07-29T23:45:53;4.00;;;1.58;;
45762;SDS011;37512;52.408;13.356;2022-07-29T23:49:58;6.72;;;1.92;;
45762;SDS011;37512;52.408;13.356;2022-07-29T23:53:59;6.15;;;1.95;;
45762;SDS011;37512;52.408;13.356;2022-07-29T23:58:01;7.80;;;2.30;;
